Time;durP1;ratioP1;P1;durP2;ratioP2;P2;SDS_P1;SDS_P2;PMS_P1;PMS_P2;Temp;Humidity;BMP_temperature;BMP_pressure;BME280_temperature;BME280_humidity;BME280_pressure;Samples;Min_cycle;Max_cycle;Signal;HPM_P1;HPM_P2
2021/04/05 00:02:25;;;;;;;30.58;18.10;;;5.10;99.90;;;;;;5032053;28;20503;-69
2021/04/05 00:04:52;;;;;;;26.35;17.00;;;5.10;99.90;;;;;;5032054;28;20451;-69
2021/04/05 00:07:19;;;;;;;26.60;18.25;;;5.00;99.90;;;;;;5013123;28;20439;-69
2021/04/05 00:09:46;;;;;;;26.58;17.55;;;5.00;99.90;;;;;;5026681;28;20112;-68
2021/04/05 00:12:13;;;;;;;28.95;17.98;;;5.00;99.90;;;;;;5028964;28;20049;-68
2021/04/05 00:14:42;;;;;;;28.63;17.25;;;5.00;99.90;;;;;;5034635;28;20045;-69
2021/04/05 00:17:11;;;;;;;28.17;18.55;;;5.00;99.90;;;;;;5035133;28;20455;-68
2021/04/05 00:19:41;;;;;;;27.52;18.23;;;5.10;99.90;;;;;;5031721;28;20057;-69
2021/04/05 00:22:08;;;;;;;26.77;17.58;;;5.10;99.90;;;;;;5030598;28;20547;-69
2021/04/05 00:24:35;;;;;;;25.95;17.30;;;5.10;99.90;;;;;;5032139;28;20133;-69
2021/04/05 00:27:02;;;;;;;25.52;16.48;;;5.10;99.90;;;;;;5047246;28;20435;-69
2021/04/05 00:29:29;;;;;;;24.67;16.70;;;5.00;99.90;;;;;;5013924;28;20151;-69
2021/04/05 00:32:03;;;;;;;28.17;18.38;;;5.00;99.90;;;;;;5031474;28;20046;-70
2021/04/05 00:34:37;;;;;;;28.50;17.60;;;5.00;99.90;;;;;;5014736;28;20049;-69
2021/04/05 00:37:04;;;;;;;21.38;16.42;;;4.90;99.90;;;;;;5011098;28;20049;-70
2021/04/05 00:39:31;;;;;;;25.08;17.67;;;4.90;99.90;;;;;;5021649;28;20471;-69
2021/04/05 00:41:59;;;;;;;23.10;17.73;;;4.90;99.90;;;;;;5011617;28;20056;-70
2021/04/05 00:44:29;;;;;;;29.35;17.90;;;4.80;99.90;;;;;;5023376;28;20049;-69
2021/04/05 00:46:57;;;;;;;24.02;17.30;;;4.90;99.90;;;;;;5011628;28;20049;-68
2021/04/05 00:49:24;;;;;;;28.58;17.48;;;4.90;99.90;;;;;;5010368;28;20041;-69
2021/04/05 00:51:51;;;;;;;27.65;18.30;;;4.90;99.90;;;;;;5025994;28;20044;-69
2021/04/05 00:54:21;;;;;;;24.33;17.42;;;5.00;99.90;;;;;;5046864;28;20114;-69
2021/04/05 00:56:48;;;;;;;24.33;16.75;;;5.00;99.90;;;;;;5031532;28;20045;-70
2021/04/05 00:59:15;;;;;;;24.85;17.90;;;4.90;99.90;;;;;;5030013;28;20126;-69
2021/04/05 01:01:42;;;;;;;22.85;16.88;;;4.90;99.90;;;;;;5026444;28;20253;-69
2021/04/05 01:04:09;;;;;;;22.13;16.25;;;4.80;99.90;;;;;;5013776;28;20042;-69
2021/04/05 01:06:37;;;;;;;27.35;17.48;;;4.80;99.90;;;;;;5030295;28;20079;-69
2021/04/05 01:09:05;;;;;;;30.02;18.30;;;4.80;99.90;;;;;;5025903;28;20049;-68
2021/04/05 01:11:33;;;;;;;30.98;18.83;;;4.80;99.90;;;;;;5024202;28;20056;-68
2021/04/05 01:14:00;;;;;;;26.55;17.60;;;4.80;99.90;;;;;;5029676;28;20396;-68
2021/04/05 01:16:29;;;;;;;26.08;17.40;;;4.80;99.90;;;;;;5035695;28;20095;-68
2021/04/05 01:18:58;;;;;;;23.90;17.30;;;4.80;99.90;;;;;;5022053;28;20042;-69
2021/04/05 01:21:25;;;;;;;25.52;17.48;;;4.80;99.90;;;;;;5030550;28;20060;-68
2021/04/05 01:23:52;;;;;;;23.20;17.48;;;4.80;99.90;;;;;;5029003;28;20092;-69
2021/04/05 01:26:20;;;;;;;24.45;17.42;;;4.70;99.90;;;;;;5030657;28;20053;-70
2021/04/05 01:28:47;;;;;;;27.98;16.75;;;4.60;99.90;;;;;;5031132;28;20054;-67
2021/04/05 01:31:14;;;;;;;28.77;17.42;;;4.60;99.90;;;;;;5029247;28;20103;-69
2021/04/05 01:33:43;;;;;;;23.95;17.65;;;4.70;99.90;;;;;;5021186;28;20046;-69
2021/04/05 01:36:16;;;;;;;25.23;17.80;;;4.70;99.90;;;;;;5018229;28;20650;-69
2021/04/05 01:38:49;;;;;;;23.88;17.13;;;4.70;99.90;;;;;;5016427;28;20096;-71
2021/04/05 01:41:20;;;;;;;25.70;17.95;;;4.70;99.90;;;;;;5031124;28;20046;-70
2021/04/05 01:43:47;;;;;;;23.45;17.50;;;4.60;99.90;;;;;;5028842;28;20135;-70
2021/04/05 01:46:16;;;;;;;23.35;17.67;;;4.60;99.90;;;;;;5025508;28;20064;-68
2021/04/05 01:48:43;;;;;;;22.45;17.55;;;4.60;99.90;;;;;;5029731;28;20065;-69
2021/04/05 01:51:15;;;;;;;27.52;18.15;;;4.50;99.90;;;;;;5030786;28;20037;-69
2021/04/05 01:53:43;;;;;;;24.60;17.90;;;4.50;99.90;;;;;;5028927;28;20058;-69
2021/04/05 01:56:12;;;;;;;26.85;18.38;;;4.50;99.90;;;;;;5031177;28;20331;-69
2021/04/05 01:58:41;;;;;;;22.33;17.30;;;4.50;99.90;;;;;;5028503;28;20100;-69
2021/04/05 02:01:11;;;;;;;26.13;18.10;;;4.50;99.90;;;;;;5031064;28;20041;-69
2021/04/05 02:03:39;;;;;;;25.60;17.58;;;4.50;99.90;;;;;;5028986;28;20057;-69
2021/04/05 02:06:31;;;;;;;23.83;17.20;;;4.50;99.90;;;;;;5028355;28;20099;-69
2021/04/05 02:08:58;;;;;;;25.08;18.40;;;4.50;99.90;;;;;;5017104;28;20502;-69
2021/04/05 02:11:29;;;;;;;30.13;17.42;;;4.40;99.90;;;;;;5036902;28;20130;-69
2021/04/05 02:13:58;;;;;;;23.30;17.15;;;4.50;99.90;;;;;;5027087;28;20037;-69
2021/04/05 02:16:27;;;;;;;22.73;16.73;;;4.40;99.90;;;;;;5030019;28;20103;-69
2021/04/05 02:18:56;;;;;;;23.70;16.48;;;4.40;99.90;;;;;;5028698;28;20479;-68
2021/04/05 02:21:26;;;;;;;20.90;16.90;;;4.40;99.90;;;;;;5029583;28;20085;-69
2021/04/05 02:23:55;;;;;;;23.60;17.60;;;4.50;99.90;;;;;;5030371;28;20492;-69
2021/04/05 02:26:28;;;;;;;23.77;16.67;;;4.50;99.90;;;;;;5022574;28;20137;-68
2021/04/05 02:29:01;;;;;;;20.80;16.42;;;4.50;99.90;;;;;;5048371;28;20455;-68
2021/04/05 02:31:33;;;;;;;26.63;17.67;;;4.50;99.90;;;;;;5031441;28;20136;-69
2021/04/05 02:34:05;;;;;;;28.45;17.75;;;4.50;99.90;;;;;;5032846;28;20045;-69
2021/04/05 02:36:34;;;;;;;20.15;16.10;;;4.50;99.90;;;;;;5030578;28;20075;-69
2021/04/05 02:39:08;;;;;;;25.20;16.55;;;4.50;99.90;;;;;;5009922;28;20049;-69
2021/04/05 02:41:41;;;;;;;21.67;16.13;;;4.50;99.90;;;;;;5047743;28;20455;-70
2021/04/05 02:44:09;;;;;;;20.25;15.68;;;4.50;99.90;;;;;;5030750;28;20491;-69
2021/04/05 02:46:39;;;;;;;24.60;17.40;;;4.50;99.90;;;;;;5032309;28;20057;-70
2021/04/05 02:49:11;;;;;;;21.52;16.23;;;4.50;99.90;;;;;;5032439;28;20061;-69
2021/04/05 02:51:46;;;;;;;23.45;16.45;;;4.40;99.90;;;;;;5032195;28;20057;-69
2021/04/05 02:54:13;;;;;;;22.27;16.83;;;4.40;99.90;;;;;;5031910;28;20053;-69
2021/04/05 02:56:43;;;;;;;25.60;16.95;;;4.30;99.90;;;;;;5032318;28;20056;-69
2021/04/05 02:59:11;;;;;;;22.70;16.83;;;4.30;99.90;;;;;;5021605;28;20404;-69
2021/04/05 03:01:40;;;;;;;22.80;15.57;;;4.30;99.90;;;;;;5022662;28;20151;-69
2021/04/05 03:04:08;;;;;;;19.92;16.23;;;4.20;99.90;;;;;;5026764;28;20054;-69
2021/04/05 03:06:36;;;;;;;19.00;15.63;;;4.20;99.90;;;;;;5028660;28;20565;-69
2021/04/05 03:09:06;;;;;;;24.65;16.27;;;4.20;99.90;;;;;;5032228;28;20045;-69
2021/04/05 03:11:36;;;;;;;19.80;15.93;;;4.20;99.90;;;;;;5030239;28;20049;-69
2021/04/05 03:14:08;;;;;;;21.40;16.90;;;4.10;99.90;;;;;;5032920;28;20053;-68
2021/04/05 03:16:38;;;;;;;22.50;17.60;;;4.00;99.90;;;;;;5032332;28;20081;-69
2021/04/05 03:19:06;;;;;;;25.02;16.85;;;4.00;99.90;;;;;;5012383;28;20120;-69
2021/04/05 03:21:33;;;;;;;25.58;16.45;;;4.00;99.90;;;;;;5021908;28;20085;-69
2021/04/05 03:24:01;;;;;;;21.85;16.27;;;4.00;99.90;;;;;;5023775;28;20164;-69
2021/04/05 03:26:28;;;;;;;20.02;15.60;;;4.10;99.90;;;;;;5030695;28;20477;-69
2021/04/05 03:28:55;;;;;;;22.88;16.25;;;4.10;99.90;;;;;;5029392;28;20107;-69
2021/04/05 03:31:25;;;;;;;21.52;15.82;;;4.20;99.90;;;;;;5030017;28;20049;-69
2021/04/05 03:33:58;;;;;;;22.42;16.20;;;4.20;99.90;;;;;;5031086;28;20046;-68
2021/04/05 03:36:33;;;;;;;18.15;15.45;;;4.20;99.90;;;;;;5029150;28;20212;-69
2021/04/05 03:39:00;;;;;;;21.17;15.32;;;4.10;99.90;;;;;;5019054;28;20472;-70
2021/04/05 03:41:34;;;;;;;22.73;15.40;;;4.20;99.90;;;;;;5024888;28;20459;-70
2021/04/05 03:44:10;;;;;;;20.55;15.63;;;4.10;99.90;;;;;;5030825;28;20491;-69
2021/04/05 03:46:40;;;;;;;21.85;15.88;;;4.10;99.90;;;;;;5030050;28;20136;-69
2021/04/05 03:49:37;;;;;;;22.25;15.50;;;4.00;99.90;;;;;;5030239;28;20344;-69
2021/04/05 03:52:13;;;;;;;23.30;15.73;;;4.00;99.90;;;;;;5029924;28;20041;-68
2021/04/05 03:54:46;;;;;;;21.27;15.68;;;4.00;99.90;;;;;;5030508;28;20057;-68
2021/04/05 03:57:16;;;;;;;20.23;15.65;;;4.10;99.90;;;;;;5030514;28;20046;-69
2021/04/05 03:59:48;;;;;;;20.80;15.63;;;4.10;99.90;;;;;;5032047;28;20447;-69
2021/04/05 04:02:18;;;;;;;23.20;15.68;;;4.10;99.90;;;;;;5028263;28;20045;-70
2021/04/05 04:10:38;;;;;;;23.45;15.32;;;4.20;99.90;;;;;;5050298;28;20052;-69
2021/04/05 04:13:09;;;;;;;20.17;15.00;;;4.20;99.90;;;;;;5066606;28;20071;-70
2021/04/05 04:15:36;;;;;;;20.70;14.18;;;4.20;99.90;;;;;;5040997;28;20055;-70
2021/04/05 04:18:04;;;;;;;25.63;14.80;;;4.30;99.90;;;;;;5064022;28;20130;-69
2021/04/05 04:20:32;;;;;;;18.23;14.85;;;4.20;99.90;;;;;;5062310;28;20457;-69
2021/04/05 04:23:00;;;;;;;16.90;14.40;;;4.30;99.90;;;;;;5057014;28;20450;-69
2021/04/05 04:25:27;;;;;;;18.98;14.57;;;4.20;99.90;;;;;;5060629;28;20147;-69
2021/04/05 04:27:54;;;;;;;20.80;14.43;;;4.30;99.90;;;;;;5049188;28;20055;-69
2021/04/05 04:30:31;;;;;;;20.75;14.60;;;4.40;99.90;;;;;;5049540;28;20505;-69
2021/04/05 04:32:59;;;;;;;22.50;15.07;;;4.40;99.90;;;;;;5055053;28;20118;-69
2021/04/05 04:35:28;;;;;;;16.25;13.90;;;4.40;99.90;;;;;;5053685;28;20048;-69
2021/04/05 04:37:55;;;;;;;16.17;13.82;;;4.40;99.90;;;;;;5052299;28;20131;-69
2021/04/05 04:40:26;;;;;;;19.10;14.85;;;4.30;99.90;;;;;;5061901;28;20075;-69
2021/04/05 04:42:56;;;;;;;21.90;13.77;;;4.40;99.90;;;;;;5038491;28;20186;-70
2021/04/05 04:45:23;;;;;;;17.65;14.82;;;4.30;99.90;;;;;;5037981;28;20068;-69
2021/04/05 04:47:52;;;;;;;21.70;16.50;;;4.30;99.90;;;;;;5030569;28;20045;-69
2021/04/05 04:50:20;;;;;;;20.20;14.63;;;4.50;99.90;;;;;;5030630;28;20333;-69
2021/04/05 04:52:47;;;;;;;25.70;14.73;;;4.50;99.90;;;;;;5023611;28;20133;-70
2021/04/05 04:55:17;;;;;;;19.00;14.90;;;4.50;99.90;;;;;;5029296;28;20502;-69
2021/04/05 04:57:44;;;;;;;22.73;13.63;;;4.50;99.90;;;;;;5028982;28;20080;-69
2021/04/05 05:00:12;;;;;;;20.15;14.68;;;4.50;99.90;;;;;;5029000;28;20095;-70
2021/04/05 05:02:41;;;;;;;20.98;14.52;;;4.60;99.90;;;;;;5030454;28;20054;-69
2021/04/05 05:05:10;;;;;;;18.00;13.70;;;4.60;99.90;;;;;;5031099;28;20104;-69
2021/04/05 05:07:39;;;;;;;18.67;14.18;;;4.70;99.90;;;;;;5028762;28;20463;-69
2021/04/05 05:10:10;;;;;;;21.52;14.30;;;4.80;99.90;;;;;;5030062;28;20081;-68
2021/04/05 05:12:41;;;;;;;19.17;13.75;;;4.90;99.90;;;;;;5029723;28;20057;-68
2021/04/05 05:15:11;;;;;;;18.85;14.18;;;4.90;99.90;;;;;;5043642;28;20089;-69
2021/04/05 05:17:46;;;;;;;24.77;14.15;;;4.90;99.90;;;;;;5016443;28;20076;-70
2021/04/05 05:20:15;;;;;;;18.67;14.32;;;5.00;99.90;;;;;;5021748;28;20050;-69
2021/04/05 05:22:59;;;;;;;20.00;14.48;;;5.00;99.90;;;;;;5028959;28;20064;-69
2021/04/05 05:25:26;;;;;;;19.10;13.85;;;5.00;99.90;;;;;;5025111;28;20488;-68
2021/04/05 05:28:02;;;;;;;18.73;13.93;;;5.10;99.90;;;;;;5019007;28;20096;-68
2021/04/05 05:30:29;;;;;;;22.95;14.27;;;5.20;99.90;;;;;;5022734;28;20050;-68
2021/04/05 05:32:59;;;;;;;18.77;13.63;;;5.20;99.90;;;;;;5023686;28;20054;-68
2021/04/05 05:35:26;;;;;;;19.23;13.55;;;5.20;99.90;;;;;;5022507;28;20085;-68
2021/04/05 05:37:59;;;;;;;17.05;13.55;;;5.30;99.90;;;;;;5016152;28;20084;-70
2021/04/05 05:40:28;;;;;;;21.08;14.07;;;5.40;99.90;;;;;;5029313;28;20049;-68
2021/04/05 05:43:07;;;;;;;22.88;13.80;;;5.50;99.90;;;;;;5029509;28;20038;-68
2021/04/05 05:45:41;;;;;;;19.80;13.98;;;5.60;99.90;;;;;;5030860;28;20053;-68
2021/04/05 05:48:25;;;;;;;18.50;13.75;;;5.60;99.90;;;;;;5023930;28;20414;-68
2021/04/05 05:51:17;;;;;;;21.77;13.93;;;5.70;99.90;;;;;;5025505;28;20148;-68
2021/04/05 05:54:04;;;;;;;19.05;13.02;;;5.70;99.90;;;;;;5036899;28;20038;-68
2021/04/05 05:56:55;;;;;;;20.85;13.55;;;5.70;99.90;;;;;;5022018;28;20484;-68
2021/04/05 05:59:31;;;;;;;19.65;13.68;;;5.80;99.90;;;;;;5023446;28;20046;-68
2021/04/05 06:02:11;;;;;;;18.98;13.25;;;5.90;99.90;;;;;;5033236;28;20050;-68
2021/04/05 06:05:14;;;;;;;20.75;13.38;;;6.10;99.90;;;;;;5033355;28;20108;-69
2021/04/05 06:08:00;;;;;;;20.95;13.77;;;6.20;99.90;;;;;;5022820;28;20552;-69
2021/04/05 06:10:47;;;;;;;20.63;13.52;;;6.30;99.90;;;;;;5022796;28;20057;-69
2021/04/05 06:13:41;;;;;;;24.20;15.38;;;6.40;99.90;;;;;;5034027;28;20045;-69
2021/04/05 06:16:27;;;;;;;18.70;13.93;;;6.40;99.90;;;;;;5040736;28;20041;-69
2021/04/05 06:19:00;;;;;;;18.77;13.38;;;6.50;99.90;;;;;;5027939;28;20049;-69
2021/04/05 06:21:26;;;;;;;16.85;13.30;;;6.70;99.90;;;;;;5033438;28;20065;-69
2021/04/05 06:23:59;;;;;;;16.52;13.93;;;6.80;99.90;;;;;;5033138;28;20690;-69
2021/04/05 06:27:00;;;;;;;19.52;14.25;;;6.80;99.90;;;;;;5032781;28;20412;-69
2021/04/05 06:29:39;;;;;;;25.00;14.75;;;6.90;99.90;;;;;;5032387;28;20520;-68
2021/04/05 06:32:19;;;;;;;22.85;13.93;;;7.00;99.90;;;;;;5032369;28;20045;-69
2021/04/05 06:34:50;;;;;;;19.77;13.77;;;7.20;99.90;;;;;;5031897;28;20076;-69
2021/04/05 06:37:35;;;;;;;22.63;14.10;;;7.30;99.90;;;;;;5012601;28;20078;-69
2021/04/05 06:40:16;;;;;;;18.00;13.30;;;7.40;99.90;;;;;;5028637;28;20191;-68
2021/04/05 06:42:59;;;;;;;24.80;13.32;;;7.70;99.90;;;;;;5032515;28;20053;-69
2021/04/05 06:45:47;;;;;;;22.55;13.25;;;7.70;99.90;;;;;;5030667;28;20054;-69
2021/04/05 06:48:42;;;;;;;21.92;13.63;;;7.90;99.90;;;;;;5031885;28;20064;-69
2021/04/05 06:51:31;;;;;;;17.00;12.80;;;8.10;99.90;;;;;;5031396;28;20545;-69
2021/04/05 06:54:08;;;;;;;18.42;12.65;;;8.20;99.90;;;;;;5030612;28;20049;-69
2021/04/05 06:57:11;;;;;;;24.05;12.68;;;8.30;99.90;;;;;;5030947;28;20500;-69
2021/04/05 07:00:15;;;;;;;22.08;12.60;;;8.40;99.90;;;;;;5017800;28;20042;-69
2021/04/05 07:02:41;;;;;;;24.95;13.82;;;8.60;99.90;;;;;;5038060;28;20054;-70
2021/04/05 07:05:29;;;;;;;19.92;12.65;;;8.70;99.90;;;;;;5009260;28;20127;-69
2021/04/05 07:08:04;;;;;;;18.67;12.32;;;8.90;99.90;;;;;;5045445;28;20053;-69
2021/04/05 07:10:44;;;;;;;18.67;12.57;;;9.10;99.90;;;;;;5031742;28;20057;-69
2021/04/05 07:13:29;;;;;;;29.23;13.25;;;9.20;99.90;;;;;;5046505;28;20557;-68
2021/04/05 07:16:03;;;;;;;20.30;12.52;;;9.30;99.90;;;;;;5041382;28;20056;-69
2021/04/05 07:19:10;;;;;;;22.25;14.93;;;9.40;99.90;;;;;;5032262;28;20139;-69
2021/04/05 07:22:17;;;;;;;22.20;13.10;;;9.60;99.90;;;;;;5032262;28;20057;-70
2021/04/05 07:24:58;;;;;;;19.58;13.00;;;9.60;99.90;;;;;;5015319;28;20225;-70
2021/04/05 07:27:36;;;;;;;20.27;13.10;;;9.70;99.90;;;;;;5025647;28;20065;-68
2021/04/05 07:30:21;;;;;;;23.98;12.40;;;9.60;99.90;;;;;;5021224;28;20581;-68
2021/04/05 07:33:33;;;;;;;19.17;13.52;;;9.70;99.90;;;;;;5030980;28;20056;-69
2021/04/05 07:36:22;;;;;;;19.58;13.55;;;9.60;99.90;;;;;;5034588;28;20116;-68
2021/04/05 07:39:00;;;;;;;20.38;13.15;;;9.70;99.90;;;;;;5018453;28;20096;-69
2021/04/05 07:41:48;;;;;;;20.20;12.82;;;9.90;99.90;;;;;;5026707;28;20501;-68
2021/04/05 07:44:38;;;;;;;17.92;13.18;;;9.90;99.90;;;;;;5029439;28;20049;-70
2021/04/05 07:47:05;;;;;;;20.48;11.80;;;9.80;99.90;;;;;;5029873;28;20391;-68
2021/04/05 07:50:15;;;;;;;20.15;12.55;;;9.80;99.90;;;;;;5030039;28;20049;-69
2021/04/05 07:52:48;;;;;;;32.58;12.88;;;9.90;99.90;;;;;;5017150;28;20057;-69
2021/04/05 07:55:15;;;;;;;20.40;12.57;;;9.70;99.90;;;;;;5014903;28;20514;-68
2021/04/05 07:58:09;;;;;;;23.92;12.35;;;9.70;99.90;;;;;;5043919;28;20053;-68
2021/04/05 08:00:58;;;;;;;14.80;12.48;;;9.70;99.90;;;;;;5027545;28;20180;-68
2021/04/05 08:03:32;;;;;;;21.70;12.02;;;9.70;99.90;;;;;;5030141;28;20128;-69
2021/04/05 08:06:07;;;;;;;21.85;12.32;;;9.80;99.90;;;;;;5018748;28;20132;-68
2021/04/05 08:09:01;;;;;;;17.30;12.20;;;9.80;99.90;;;;;;5031127;28;20053;-68
2021/04/05 08:11:59;;;;;;;21.48;12.45;;;9.90;99.90;;;;;;5022181;28;20137;-69
2021/04/05 08:14:39;;;;;;;18.30;11.52;;;9.80;99.90;;;;;;5033871;28;20049;-70
2021/04/05 08:17:28;;;;;;;19.02;11.98;;;9.80;99.90;;;;;;5033471;28;20045;-67
2021/04/05 08:20:06;;;;;;;18.83;11.88;;;9.70;99.90;;;;;;5028432;28;20041;-68
2021/04/05 08:23:12;;;;;;;19.35;12.95;;;9.80;99.90;;;;;;5025075;28;20056;-69
2021/04/05 08:26:00;;;;;;;20.95;12.30;;;9.80;99.90;;;;;;5026337;28;20049;-69
2021/04/05 08:28:50;;;;;;;17.15;12.15;;;9.80;99.90;;;;;;5029347;28;20069;-70
2021/04/05 08:31:42;;;;;;;16.30;12.20;;;9.60;99.90;;;;;;5028993;28;20491;-69
2021/04/05 08:34:37;;;;;;;20.33;12.50;;;9.50;99.90;;;;;;5026871;28;20045;-70
2021/04/05 08:37:35;;;;;;;18.70;12.32;;;9.50;99.90;;;;;;5009656;28;20097;-68
2021/04/05 08:40:45;;;;;;;21.60;13.07;;;9.70;99.90;;;;;;5011079;28;20064;-68
2021/04/05 08:43:40;;;;;;;20.98;12.38;;;9.70;99.90;;;;;;5010824;28;20081;-71
2021/04/05 08:46:18;;;;;;;17.85;12.15;;;9.80;99.90;;;;;;5011573;28;20085;-69
2021/04/05 08:48:51;;;;;;;19.75;12.75;;;9.70;99.90;;;;;;5029557;28;20077;-70
2021/04/05 08:51:29;;;;;;;24.77;12.68;;;9.60;99.90;;;;;;5018726;28;20532;-70
2021/04/05 08:53:59;;;;;;;22.85;13.88;;;9.70;99.90;;;;;;5024671;28;20054;-69
2021/04/05 08:56:42;;;;;;;27.58;14.27;;;9.70;99.90;;;;;;5020941;28;20072;-72
2021/04/05 08:59:14;;;;;;;23.80;13.38;;;9.70;99.90;;;;;;5019583;28;20132;-69
2021/04/05 09:01:46;;;;;;;23.58;14.75;;;9.60;99.90;;;;;;5024648;28;20046;-69
2021/04/05 09:04:24;;;;;;;21.77;14.25;;;9.60;99.90;;;;;;5029579;28;20092;-69
2021/04/05 09:07:14;;;;;;;24.17;15.32;;;9.70;99.90;;;;;;5030097;28;20081;-71
2021/04/05 09:09:43;;;;;;;32.63;14.63;;;9.70;99.90;;;;;;5030615;28;20108;-69
2021/04/05 09:12:11;;;;;;;23.20;14.10;;;9.80;99.90;;;;;;5029866;28;20058;-69
2021/04/05 09:15:12;;;;;;;27.95;14.60;;;9.80;99.90;;;;;;5026855;28;20140;-70
2021/04/05 09:18:16;;;;;;;24.53;15.07;;;9.80;99.90;;;;;;5027160;28;20419;-72
2021/04/05 09:21:19;;;;;;;23.55;14.88;;;9.90;99.90;;;;;;5027860;28;20049;-71
2021/04/05 09:23:47;;;;;;;26.63;15.23;;;9.90;99.90;;;;;;5028542;28;20069;-68
2021/04/05 09:26:21;;;;;;;30.67;15.45;;;9.90;99.90;;;;;;5025562;28;20050;-70
2021/04/05 09:29:23;;;;;;;34.47;16.08;;;9.80;99.90;;;;;;5028608;28;20057;-69
2021/04/05 09:32:10;;;;;;;28.52;16.77;;;10.00;99.90;;;;;;5027354;28;20138;-69
2021/04/05 09:34:36;;;;;;;25.60;16.70;;;9.70;99.90;;;;;;5022592;28;20095;-70
2021/04/05 09:37:22;;;;;;;30.38;17.10;;;9.90;99.90;;;;;;5008616;28;20048;-71
2021/04/05 09:40:13;;;;;;;28.70;16.90;;;9.80;99.90;;;;;;5032479;28;20056;-69
2021/04/05 09:43:09;;;;;;;25.15;17.40;;;9.80;99.90;;;;;;5029611;28;21015;-68
2021/04/05 09:45:45;;;;;;;34.38;17.70;;;10.00;99.90;;;;;;5028975;28;20081;-75
2021/04/05 09:48:49;;;;;;;30.13;16.83;;;10.00;99.90;;;;;;5043613;28;20083;-71
2021/04/05 09:51:36;;;;;;;26.17;16.75;;;9.90;99.90;;;;;;5030224;28;20393;-68
2021/04/05 09:54:26;;;;;;;29.48;17.05;;;10.20;99.90;;;;;;5029759;28;20357;-70
2021/04/05 09:57:01;;;;;;;30.38;17.38;;;10.10;99.90;;;;;;5048234;28;20057;-70
2021/04/05 09:59:51;;;;;;;29.77;17.63;;;10.20;99.90;;;;;;5032668;28;20081;-69
2021/04/05 10:02:31;;;;;;;30.77;18.40;;;10.40;99.90;;;;;;5034258;28;20045;-69
2021/04/05 10:04:59;;;;;;;32.15;17.50;;;10.50;99.90;;;;;;5030294;28;20057;-69
2021/04/05 10:07:28;;;;;;;28.63;17.02;;;10.50;99.90;;;;;;5032617;28;20504;-70
2021/04/05 10:09:57;;;;;;;27.92;16.98;;;10.50;99.90;;;;;;5035102;28;20146;-68
2021/04/05 10:12:25;;;;;;;27.15;18.42;;;10.60;99.90;;;;;;5033212;28;20068;-69
2021/04/05 10:15:10;;;;;;;29.13;18.02;;;10.60;99.90;;;;;;5041171;28;20083;-67
2021/04/05 10:17:40;;;;;;;26.85;16.65;;;10.40;99.90;;;;;;5034079;28;20099;-67
2021/04/05 10:20:07;;;;;;;29.85;16.08;;;10.40;99.90;;;;;;5032531;28;20107;-69
2021/04/05 10:22:41;;;;;;;30.10;17.75;;;10.50;99.90;;;;;;5025793;28;20053;-68
2021/04/05 10:25:10;;;;;;;26.23;18.30;;;10.80;99.90;;;;;;5049286;28;20107;-69
2021/04/05 10:27:37;;;;;;;29.65;17.67;;;10.80;99.90;;;;;;5029441;28;20049;-69
2021/04/05 10:30:08;;;;;;;33.03;17.95;;;10.70;99.90;;;;;;5033164;28;20058;-70
2021/04/05 10:32:41;;;;;;;26.73;17.92;;;10.40;99.90;;;;;;5031819;28;20064;-68
2021/04/05 10:35:12;;;;;;;26.85;17.15;;;10.50;99.90;;;;;;5031069;28;20037;-71
2021/04/05 10:37:43;;;;;;;33.45;17.52;;;10.30;99.90;;;;;;5030078;28;20049;-70
2021/04/05 10:40:20;;;;;;;30.77;17.17;;;10.40;99.90;;;;;;5042129;28;20041;-68
2021/04/05 10:43:09;;;;;;;27.42;17.27;;;10.30;99.90;;;;;;5032519;28;20038;-71
2021/04/05 10:45:38;;;;;;;23.73;16.48;;;10.60;99.90;;;;;;5029102;28;20041;-69
2021/04/05 10:48:12;;;;;;;31.48;18.08;;;10.40;99.90;;;;;;5028421;28;20045;-70
2021/04/05 10:50:54;;;;;;;25.80;17.63;;;10.20;99.90;;;;;;5031720;28;20456;-71
2021/04/05 10:53:22;;;;;;;32.80;17.77;;;10.10;99.90;;;;;;5028237;28;20113;-71
2021/04/05 10:55:57;;;;;;;32.05;17.90;;;10.00;99.90;;;;;;5022961;28;20053;-69
2021/04/05 10:58:30;;;;;;;31.02;17.10;;;10.10;99.90;;;;;;5023453;28;20058;-70
2021/04/05 11:01:00;;;;;;;32.13;17.15;;;10.00;99.90;;;;;;5033074;28;20053;-69
2021/04/05 11:03:30;;;;;;;31.15;17.67;;;10.10;99.90;;;;;;5032203;28;20073;-68
2021/04/05 11:06:06;;;;;;;28.67;16.83;;;10.00;99.90;;;;;;5020105;28;20080;-70
2021/04/05 11:08:35;;;;;;;31.08;17.38;;;10.00;99.90;;;;;;5046402;28;20503;-70
2021/04/05 11:11:09;;;;;;;35.47;18.40;;;10.00;99.90;;;;;;5028358;28;20497;-68
2021/04/05 11:13:38;;;;;;;28.77;17.35;;;10.00;99.90;;;;;;5030314;28;20049;-69
2021/04/05 11:16:14;;;;;;;25.50;16.48;;;10.20;99.90;;;;;;5022590;28;20046;-70
2021/04/05 11:18:52;;;;;;;26.27;16.80;;;10.30;99.90;;;;;;5030338;28;20054;-71
2021/04/05 11:21:23;;;;;;;21.90;16.55;;;10.50;99.90;;;;;;5028486;28;20049;-68
2021/04/05 11:23:56;;;;;;;25.92;17.33;;;10.30;99.90;;;;;;5032561;28;20056;-68
2021/04/05 11:26:32;;;;;;;26.33;16.48;;;10.20;99.90;;;;;;5032176;28;20045;-70
2021/04/05 11:29:03;;;;;;;28.05;17.50;;;10.10;99.90;;;;;;5040096;28;20057;-70
2021/04/05 11:31:35;;;;;;;26.80;17.33;;;10.20;99.90;;;;;;5016199;28;20053;-69
2021/04/05 11:34:03;;;;;;;28.13;17.38;;;10.50;99.90;;;;;;5041425;28;20057;-68
2021/04/05 11:36:51;;;;;;;25.00;16.63;;;10.60;99.90;;;;;;5002419;28;20171;-70
2021/04/05 11:39:27;;;;;;;26.17;17.52;;;10.30;99.90;;;;;;5026973;28;20053;-70
2021/04/05 11:41:57;;;;;;;29.50;17.50;;;10.20;99.90;;;;;;5021930;28;20054;-68
2021/04/05 11:44:30;;;;;;;29.85;18.40;;;10.20;99.90;;;;;;5039723;28;20104;-70
2021/04/05 11:46:58;;;;;;;32.22;17.58;;;10.10;99.90;;;;;;5029712;28;20041;-71
2021/04/05 11:49:30;;;;;;;29.70;17.92;;;9.90;99.90;;;;;;5023592;28;20132;-68
2021/04/05 11:52:07;;;;;;;26.52;17.27;;;10.00;99.90;;;;;;5023352;28;20049;-70
2021/04/05 11:54:52;;;;;;;31.10;18.80;;;10.00;99.90;;;;;;5010753;28;20045;-71
2021/04/05 11:57:31;;;;;;;23.48;16.52;;;10.00;99.90;;;;;;5022882;28;20042;-69
2021/04/05 12:00:10;;;;;;;25.77;17.17;;;9.80;99.90;;;;;;5019669;28;20049;-70
2021/04/05 12:02:48;;;;;;;25.02;17.42;;;9.80;99.90;;;;;;5022252;28;20105;-68
2021/04/05 12:05:31;;;;;;;26.83;17.95;;;9.80;99.90;;;;;;5040449;28;20045;-69
2021/04/05 12:08:30;;;;;;;27.40;16.85;;;9.80;99.90;;;;;;5017944;28;20744;-71
2021/04/05 12:11:05;;;;;;;27.65;17.83;;;9.80;99.90;;;;;;5015642;28;20508;-71
2021/04/05 12:13:44;;;;;;;26.42;17.58;;;9.80;99.90;;;;;;5008394;28;20049;-70
2021/04/05 12:16:13;;;;;;;32.25;16.88;;;9.80;99.90;;;;;;5022995;28;20137;-69
2021/04/05 12:18:44;;;;;;;29.52;17.60;;;9.80;99.90;;;;;;5023217;28;20095;-72
2021/04/05 12:21:14;;;;;;;28.38;17.25;;;9.90;99.90;;;;;;5025451;28;20128;-70
2021/04/05 12:23:42;;;;;;;29.63;18.40;;;9.70;99.90;;;;;;5014585;28;20073;-68
2021/04/05 12:26:11;;;;;;;26.38;17.10;;;9.90;99.90;;;;;;5013189;28;20062;-70
2021/04/05 12:28:40;;;;;;;32.30;18.20;;;9.80;99.90;;;;;;5022770;28;20464;-68
2021/04/05 12:31:10;;;;;;;31.85;17.80;;;9.70;99.90;;;;;;5027292;28;20144;-70
2021/04/05 12:33:54;;;;;;;32.78;18.75;;;9.40;99.90;;;;;;5025643;28;20115;-69
2021/04/05 12:36:30;;;;;;;30.63;17.80;;;9.40;99.90;;;;;;5020428;28;20048;-69
2021/04/05 12:38:58;;;;;;;28.63;17.17;;;9.30;99.90;;;;;;5018176;28;20488;-71
2021/04/05 12:41:49;;;;;;;35.47;18.23;;;9.20;99.90;;;;;;5019978;28;20065;-69
2021/04/05 12:44:28;;;;;;;27.10;18.02;;;9.20;99.90;;;;;;5023015;28;20068;-71
2021/04/05 12:46:58;;;;;;;31.80;18.23;;;9.10;99.90;;;;;;5024022;28;20437;-67
2021/04/05 12:49:28;;;;;;;36.45;18.55;;;9.00;99.90;;;;;;5022573;28;20123;-71
2021/04/05 12:52:12;;;;;;;32.45;17.15;;;8.90;99.90;;;;;;5017053;28;20073;-72
2021/04/05 12:54:45;;;;;;;28.70;16.40;;;8.80;99.90;;;;;;5026985;28;20052;-72
2021/04/05 12:57:13;;;;;;;30.08;17.67;;;8.90;99.90;;;;;;5024846;28;20520;-68
2021/04/05 12:59:40;;;;;;;33.47;17.92;;;8.80;99.90;;;;;;5025554;28;20107;-70
2021/04/05 13:02:15;;;;;;;26.58;17.00;;;8.90;99.90;;;;;;5027186;28;20115;-69
2021/04/05 13:04:58;;;;;;;34.53;16.70;;;8.90;99.90;;;;;;5018956;28;20045;-72
2021/04/05 13:07:47;;;;;;;30.70;17.98;;;8.90;99.90;;;;;;5014238;28;20057;-72
2021/04/05 13:10:38;;;;;;;31.67;18.38;;;8.70;99.90;;;;;;5007713;28;20061;-71
2021/04/05 13:13:15;;;;;;;35.70;18.35;;;8.40;99.90;;;;;;5020961;28;20041;-71
2021/04/05 13:15:45;;;;;;;40.30;19.35;;;8.20;99.90;;;;;;5017051;28;20049;-69
2021/04/05 13:18:34;;;;;;;30.35;18.25;;;8.00;99.90;;;;;;5023790;28;20095;-71
2021/04/05 13:21:08;;;;;;;29.90;17.80;;;7.80;99.90;;;;;;5026083;28;20049;-74
2021/04/05 13:23:44;;;;;;;33.20;18.90;;;7.60;99.90;;;;;;5022611;28;20424;-72
2021/04/05 13:26:17;;;;;;;32.20;18.60;;;7.30;99.90;;;;;;5041433;28;20055;-73